aviador You're here:

SAZN Decoded Metar

NEUQUEN in ARGENTINA
Report Time2017-12-11 22:00:00
UTC Time2017-12-11 22:59:54
Flight Rules vfr VFR
Wind050° at 11 kt
W.Decomp.*RWY 09: 7.9 kt HW 7.6 kt LCW
W.Rank050° ranks 7
Current wind is above 050° avg. (5.7)
Visibility9999 m
Phenomena:N/A
Clouds:N/A
Expected CloudBase > 6,800 ft AGL from Temp-Dew spread
CeilingNone
Temp31°C (ISA +18)
Dew Point14°C (35% RH)
Heat Index30.3°C
AAT28.2°C
QNH1004 hPa
Density Alt3,435 ft
Elevation889 ft
Report Wrong Elevation
Raw Report
METAR SAZN 112200Z 05011KT CAVOK 31/14 Q1004=

Extra information for SAZN:More info

Metar Taf Metar & Taf Last 4 Metars F.Rules Stats Wind Profile Meteogram Temp Stats Airport Information Weather charts Add Link Nearby VenuesMetar ALERT Operation Metar Decoded Social comments